sensor_id;sensor_type;location;lat;lon;timestamp;P1;durP1;ratioP1;P2;durP2;ratioP2
47529;SDS011;33272;51.922;7.730;2023-08-30T00:01:06;7.10;;;6.33;;
47529;SDS011;33272;51.922;7.730;2023-08-30T00:03:33;7.33;;;6.57;;
47529;SDS011;33272;51.922;7.730;2023-08-30T00:06:04;8.27;;;6.80;;
47529;SDS011;33272;51.922;7.730;2023-08-30T00:08:31;7.00;;;6.40;;
47529;SDS011;33272;51.922;7.730;2023-08-30T00:11:00;6.97;;;6.27;;
47529;SDS011;33272;51.922;7.730;2023-08-30T00:13:29;7.83;;;6.40;;
47529;SDS011;33272;51.922;7.730;2023-08-30T00:15:57;7.27;;;6.57;;
47529;SDS011;33272;51.922;7.730;2023-08-30T00:18:24;7.30;;;6.60;;
47529;SDS011;33272;51.922;7.730;2023-08-30T00:20:51;8.53;;;7.47;;
47529;SDS011;33272;51.922;7.730;2023-08-30T00:23:18;7.93;;;6.83;;
47529;SDS011;33272;51.922;7.730;2023-08-30T00:25:45;7.50;;;6.80;;
47529;SDS011;33272;51.922;7.730;2023-08-30T00:28:13;7.43;;;6.33;;
47529;SDS011;33272;51.922;7.730;2023-08-30T00:30:40;8.73;;;6.97;;
47529;SDS011;33272;51.922;7.730;2023-08-30T00:33:07;7.17;;;6.47;;
47529;SDS011;33272;51.922;7.730;2023-08-30T00:35:34;7.13;;;6.43;;
47529;SDS011;33272;51.922;7.730;2023-08-30T00:38:01;7.17;;;6.47;;
47529;SDS011;33272;51.922;7.730;2023-08-30T00:40:29;7.20;;;6.50;;
47529;SDS011;33272;51.922;7.730;2023-08-30T00:43:05;7.70;;;7.00;;
47529;SDS011;33272;51.922;7.730;2023-08-30T00:45:34;7.83;;;7.07;;
47529;SDS011;33272;51.922;7.730;2023-08-30T00:48:05;8.47;;;6.80;;
47529;SDS011;33272;51.922;7.730;2023-08-30T00:50:32;7.50;;;6.43;;
47529;SDS011;33272;51.922;7.730;2023-08-30T00:53:00;7.33;;;6.63;;
47529;SDS011;33272;51.922;7.730;2023-08-30T00:55:30;7.67;;;6.77;;
47529;SDS011;33272;51.922;7.730;2023-08-30T00:57:58;6.70;;;6.10;;
47529;SDS011;33272;51.922;7.730;2023-08-30T01:00:25;6.80;;;6.20;;
47529;SDS011;33272;51.922;7.730;2023-08-30T01:02:55;7.10;;;6.43;;
47529;SDS011;33272;51.922;7.730;2023-08-30T01:05:22;8.50;;;6.33;;
47529;SDS011;33272;51.922;7.730;2023-08-30T01:07:49;7.57;;;6.77;;
47529;SDS011;33272;51.922;7.730;2023-08-30T01:10:17;7.27;;;6.57;;
47529;SDS011;33272;51.922;7.730;2023-08-30T01:12:48;7.07;;;6.37;;
47529;SDS011;33272;51.922;7.730;2023-08-30T01:15:23;8.00;;;7.20;;
47529;SDS011;33272;51.922;7.730;2023-08-30T01:17:52;7.47;;;6.77;;
47529;SDS011;33272;51.922;7.730;2023-08-30T01:20:22;7.80;;;6.27;;
47529;SDS011;33272;51.922;7.730;2023-08-30T01:22:54;8.43;;;6.67;;
47529;SDS011;33272;51.922;7.730;2023-08-30T01:25:30;7.80;;;6.47;;
47529;SDS011;33272;51.922;7.730;2023-08-30T01:28:05;7.23;;;6.53;;
47529;SDS011;33272;51.922;7.730;2023-08-30T01:30:34;6.80;;;6.20;;
47529;SDS011;33272;51.922;7.730;2023-08-30T01:33:06;7.40;;;6.70;;
47529;SDS011;33272;51.922;7.730;2023-08-30T01:35:35;7.40;;;6.60;;
47529;SDS011;33272;51.922;7.730;2023-08-30T01:38:03;7.70;;;7.00;;
47529;SDS011;33272;51.922;7.730;2023-08-30T01:40:32;7.07;;;6.33;;
47529;SDS011;33272;51.922;7.730;2023-08-30T01:43:02;9.97;;;6.90;;
47529;SDS011;33272;51.922;7.730;2023-08-30T01:45:34;7.70;;;7.00;;
47529;SDS011;33272;51.922;7.730;2023-08-30T01:48:04;8.03;;;7.23;;
47529;SDS011;33272;51.922;7.730;2023-08-30T01:50:34;6.83;;;6.23;;
47529;SDS011;33272;51.922;7.730;2023-08-30T01:53:03;7.10;;;6.40;;
47529;SDS011;33272;51.922;7.730;2023-08-30T01:55:30;6.73;;;6.13;;
47529;SDS011;33272;51.922;7.730;2023-08-30T01:57:58;7.30;;;6.37;;
47529;SDS011;33272;51.922;7.730;2023-08-30T02:00:27;7.57;;;6.80;;
47529;SDS011;33272;51.922;7.730;2023-08-30T02:02:54;6.53;;;5.80;;
47529;SDS011;33272;51.922;7.730;2023-08-30T02:05:22;6.93;;;6.23;;
47529;SDS011;33272;51.922;7.730;2023-08-30T02:07:50;6.73;;;6.03;;
47529;SDS011;33272;51.922;7.730;2023-08-30T02:10:24;7.50;;;6.80;;
47529;SDS011;33272;51.922;7.730;2023-08-30T02:12:57;7.17;;;6.43;;
47529;SDS011;33272;51.922;7.730;2023-08-30T02:15:29;6.60;;;6.00;;
47529;SDS011;33272;51.922;7.730;2023-08-30T02:17:58;8.00;;;6.93;;
47529;SDS011;33272;51.922;7.730;2023-08-30T02:20:26;7.17;;;6.50;;
47529;SDS011;33272;51.922;7.730;2023-08-30T02:22:54;7.50;;;6.70;;
47529;SDS011;33272;51.922;7.730;2023-08-30T02:25:24;7.37;;;6.63;;
47529;SDS011;33272;51.922;7.730;2023-08-30T02:27:51;7.63;;;6.93;;
47529;SDS011;33272;51.922;7.730;2023-08-30T02:30:18;8.70;;;7.20;;
47529;SDS011;33272;51.922;7.730;2023-08-30T02:32:47;8.80;;;7.90;;
47529;SDS011;33272;51.922;7.730;2023-08-30T02:35:14;9.90;;;7.20;;
47529;SDS011;33272;51.922;7.730;2023-08-30T02:37:41;10.50;;;8.27;;
47529;SDS011;33272;51.922;7.730;2023-08-30T02:40:08;9.33;;;7.30;;
47529;SDS011;33272;51.922;7.730;2023-08-30T02:42:37;8.97;;;8.07;;
47529;SDS011;33272;51.922;7.730;2023-08-30T02:45:04;9.23;;;8.33;;
47529;SDS011;33272;51.922;7.730;2023-08-30T02:47:32;10.43;;;9.33;;
47529;SDS011;33272;51.922;7.730;2023-08-30T02:50:00;10.47;;;9.40;;
47529;SDS011;33272;51.922;7.730;2023-08-30T02:52:27;11.47;;;10.27;;
47529;SDS011;33272;51.922;7.730;2023-08-30T02:54:54;11.53;;;10.30;;
47529;SDS011;33272;51.922;7.730;2023-08-30T02:57:21;12.20;;;10.07;;
47529;SDS011;33272;51.922;7.730;2023-08-30T02:59:48;11.90;;;10.20;;
47529;SDS011;33272;51.922;7.730;2023-08-30T03:02:16;10.47;;;9.40;;
47529;SDS011;33272;51.922;7.730;2023-08-30T03:04:43;10.63;;;9.53;;
47529;SDS011;33272;51.922;7.730;2023-08-30T03:07:11;11.13;;;10.03;;
47529;SDS011;33272;51.922;7.730;2023-08-30T03:09:38;11.27;;;10.07;;
47529;SDS011;33272;51.922;7.730;2023-08-30T03:12:06;10.50;;;9.40;;
47529;SDS011;33272;51.922;7.730;2023-08-30T03:14:33;10.77;;;9.53;;
47529;SDS011;33272;51.922;7.730;2023-08-30T03:17:00;10.37;;;8.80;;
47529;SDS011;33272;51.922;7.730;2023-08-30T03:19:27;12.27;;;9.83;;
47529;SDS011;33272;51.922;7.730;2023-08-30T03:21:54;10.23;;;9.23;;
47529;SDS011;33272;51.922;7.730;2023-08-30T03:24:22;11.97;;;9.77;;
47529;SDS011;33272;51.922;7.730;2023-08-30T03:26:49;10.87;;;9.53;;
47529;SDS011;33272;51.922;7.730;2023-08-30T03:29:16;11.70;;;10.50;;
47529;SDS011;33272;51.922;7.730;2023-08-30T03:31:43;11.43;;;10.23;;
47529;SDS011;33272;51.922;7.730;2023-08-30T03:34:10;10.90;;;9.80;;
47529;SDS011;33272;51.922;7.730;2023-08-30T03:36:37;11.80;;;10.60;;
47529;SDS011;33272;51.922;7.730;2023-08-30T03:39:08;12.17;;;10.80;;
47529;SDS011;33272;51.922;7.730;2023-08-30T03:41:36;11.83;;;10.43;;
47529;SDS011;33272;51.922;7.730;2023-08-30T03:44:03;12.07;;;10.20;;
47529;SDS011;33272;51.922;7.730;2023-08-30T03:46:30;13.90;;;10.27;;
47529;SDS011;33272;51.922;7.730;2023-08-30T03:48:57;12.40;;;11.07;;
47529;SDS011;33272;51.922;7.730;2023-08-30T03:51:24;12.00;;;10.70;;
47529;SDS011;33272;51.922;7.730;2023-08-30T03:53:51;13.10;;;11.73;;
47529;SDS011;33272;51.922;7.730;2023-08-30T03:56:18;13.53;;;11.63;;
47529;SDS011;33272;51.922;7.730;2023-08-30T03:58:46;12.53;;;11.13;;
47529;SDS011;33272;51.922;7.730;2023-08-30T04:01:13;11.43;;;10.13;;
47529;SDS011;33272;51.922;7.730;2023-08-30T04:03:40;11.50;;;10.30;;
47529;SDS011;33272;51.922;7.730;2023-08-30T04:06:07;12.43;;;10.67;;
47529;SDS011;33272;51.922;7.730;2023-08-30T04:08:34;10.63;;;9.57;;
47529;SDS011;33272;51.922;7.730;2023-08-30T04:11:01;10.90;;;9.87;;
47529;SDS011;33272;51.922;7.730;2023-08-30T04:13:28;11.27;;;10.10;;
47529;SDS011;33272;51.922;7.730;2023-08-30T04:15:57;11.23;;;10.13;;
47529;SDS011;33272;51.922;7.730;2023-08-30T04:18:24;11.80;;;10.27;;
47529;SDS011;33272;51.922;7.730;2023-08-30T04:20:51;10.93;;;9.73;;
47529;SDS011;33272;51.922;7.730;2023-08-30T04:23:18;11.40;;;10.20;;
47529;SDS011;33272;51.922;7.730;2023-08-30T04:25:45;13.07;;;10.63;;
47529;SDS011;33272;51.922;7.730;2023-08-30T04:28:12;10.70;;;9.63;;
47529;SDS011;33272;51.922;7.730;2023-08-30T04:30:39;10.70;;;9.70;;
47529;SDS011;33272;51.922;7.730;2023-08-30T04:33:07;11.17;;;10.07;;
47529;SDS011;33272;51.922;7.730;2023-08-30T04:35:34;12.43;;;11.23;;
47529;SDS011;33272;51.922;7.730;2023-08-30T04:38:01;13.07;;;11.63;;
47529;SDS011;33272;51.922;7.730;2023-08-30T04:40:29;12.90;;;11.23;;
47529;SDS011;33272;51.922;7.730;2023-08-30T04:42:57;12.83;;;11.53;;
47529;SDS011;33272;51.922;7.730;2023-08-30T04:45:25;12.93;;;11.57;;
47529;SDS011;33272;51.922;7.730;2023-08-30T04:47:52;13.47;;;11.93;;
47529;SDS011;33272;51.922;7.730;2023-08-30T04:50:21;13.53;;;11.57;;
47529;SDS011;33272;51.922;7.730;2023-08-30T04:52:48;16.43;;;12.77;;
47529;SDS011;33272;51.922;7.730;2023-08-30T04:55:15;14.57;;;12.47;;
47529;SDS011;33272;51.922;7.730;2023-08-30T04:57:42;14.73;;;12.77;;
47529;SDS011;33272;51.922;7.730;2023-08-30T05:00:10;17.57;;;14.60;;
47529;SDS011;33272;51.922;7.730;2023-08-30T05:02:38;16.63;;;14.80;;
47529;SDS011;33272;51.922;7.730;2023-08-30T05:05:08;18.30;;;15.20;;
47529;SDS011;33272;51.922;7.730;2023-08-30T05:07:37;18.10;;;15.67;;
47529;SDS011;33272;51.922;7.730;2023-08-30T05:10:04;18.47;;;16.13;;
47529;SDS011;33272;51.922;7.730;2023-08-30T05:12:33;17.17;;;15.37;;
47529;SDS011;33272;51.922;7.730;2023-08-30T05:15:00;18.57;;;16.63;;
47529;SDS011;33272;51.922;7.730;2023-08-30T05:17:29;18.47;;;15.67;;
47529;SDS011;33272;51.922;7.730;2023-08-30T05:19:56;19.40;;;16.80;;
47529;SDS011;33272;51.922;7.730;2023-08-30T05:22:23;18.17;;;16.27;;
47529;SDS011;33272;51.922;7.730;2023-08-30T05:24:51;19.43;;;16.80;;
47529;SDS011;33272;51.922;7.730;2023-08-30T05:27:18;18.80;;;16.80;;
47529;SDS011;33272;51.922;7.730;2023-08-30T05:29:45;21.87;;;17.90;;
47529;SDS011;33272;51.922;7.730;2023-08-30T05:32:12;20.90;;;18.40;;
47529;SDS011;33272;51.922;7.730;2023-08-30T05:34:39;20.80;;;18.60;;
47529;SDS011;33272;51.922;7.730;2023-08-30T05:37:06;21.57;;;18.73;;
47529;SDS011;33272;51.922;7.730;2023-08-30T05:39:33;22.37;;;18.97;;
47529;SDS011;33272;51.922;7.730;2023-08-30T05:42:02;23.17;;;19.07;;
47529;SDS011;33272;51.922;7.730;2023-08-30T05:44:30;20.30;;;18.10;;
47529;SDS011;33272;51.922;7.730;2023-08-30T05:46:57;21.27;;;18.43;;
47529;SDS011;33272;51.922;7.730;2023-08-30T05:49:23;21.57;;;18.73;;
47529;SDS011;33272;51.922;7.730;2023-08-30T05:51:50;21.83;;;19.13;;
47529;SDS011;33272;51.922;7.730;2023-08-30T05:54:18;21.37;;;18.90;;
47529;SDS011;33272;51.922;7.730;2023-08-30T05:56:44;21.40;;;17.87;;
47529;SDS011;33272;51.922;7.730;2023-08-30T05:59:13;22.10;;;18.10;;
47529;SDS011;33272;51.922;7.730;2023-08-30T06:01:40;25.50;;;19.97;;
47529;SDS011;33272;51.922;7.730;2023-08-30T06:04:07;24.97;;;19.87;;
47529;SDS011;33272;51.922;7.730;2023-08-30T06:06:34;21.77;;;18.03;;
47529;SDS011;33272;51.922;7.730;2023-08-30T06:09:01;20.60;;;18.13;;
47529;SDS011;33272;51.922;7.730;2023-08-30T06:11:28;20.83;;;18.33;;
47529;SDS011;33272;51.922;7.730;2023-08-30T06:13:55;21.97;;;17.97;;
47529;SDS011;33272;51.922;7.730;2023-08-30T06:16:25;24.10;;;19.10;;
47529;SDS011;33272;51.922;7.730;2023-08-30T06:18:52;22.40;;;17.83;;
47529;SDS011;33272;51.922;7.730;2023-08-30T06:21:19;21.77;;;18.50;;
47529;SDS011;33272;51.922;7.730;2023-08-30T06:23:46;20.47;;;17.97;;
47529;SDS011;33272;51.922;7.730;2023-08-30T06:26:13;22.33;;;17.10;;
47529;SDS011;33272;51.922;7.730;2023-08-30T06:28:40;21.80;;;16.93;;
47529;SDS011;33272;51.922;7.730;2023-08-30T06:31:07;19.80;;;17.70;;
47529;SDS011;33272;51.922;7.730;2023-08-30T06:33:36;20.43;;;17.90;;
47529;SDS011;33272;51.922;7.730;2023-08-30T06:36:04;17.63;;;15.37;;
47529;SDS011;33272;51.922;7.730;2023-08-30T06:38:31;21.57;;;17.23;;
47529;SDS011;33272;51.922;7.730;2023-08-30T06:40:58;21.27;;;16.93;;
47529;SDS011;33272;51.922;7.730;2023-08-30T06:43:25;18.37;;;15.17;;
47529;SDS011;33272;51.922;7.730;2023-08-30T06:45:52;19.57;;;16.23;;
47529;SDS011;33272;51.922;7.730;2023-08-30T06:48:19;20.53;;;16.83;;
47529;SDS011;33272;51.922;7.730;2023-08-30T06:50:47;20.10;;;16.60;;
47529;SDS011;33272;51.922;7.730;2023-08-30T06:53:14;20.50;;;16.80;;
47529;SDS011;33272;51.922;7.730;2023-08-30T06:55:41;20.77;;;16.50;;
47529;SDS011;33272;51.922;7.730;2023-08-30T06:58:08;24.33;;;17.07;;
47529;SDS011;33272;51.922;7.730;2023-08-30T07:00:35;21.97;;;16.47;;
47529;SDS011;33272;51.922;7.730;2023-08-30T07:03:02;19.97;;;16.57;;
47529;SDS011;33272;51.922;7.730;2023-08-30T07:05:30;20.47;;;16.97;;
47529;SDS011;33272;51.922;7.730;2023-08-30T07:07:58;21.60;;;16.50;;
47529;SDS011;33272;51.922;7.730;2023-08-30T07:10:25;20.40;;;16.90;;
47529;SDS011;33272;51.922;7.730;2023-08-30T07:12:52;19.07;;;15.87;;
47529;SDS011;33272;51.922;7.730;2023-08-30T07:15:19;21.80;;;17.47;;
47529;SDS011;33272;51.922;7.730;2023-08-30T07:17:46;21.00;;;16.63;;
47529;SDS011;33272;51.922;7.730;2023-08-30T07:20:13;23.43;;;18.13;;
47529;SDS011;33272;51.922;7.730;2023-08-30T07:22:40;18.67;;;16.40;;
47529;SDS011;33272;51.922;7.730;2023-08-30T07:25:09;23.00;;;16.17;;
47529;SDS011;33272;51.922;7.730;2023-08-30T07:27:37;21.80;;;17.53;;
47529;SDS011;33272;51.922;7.730;2023-08-30T07:30:04;19.20;;;15.73;;
47529;SDS011;33272;51.922;7.730;2023-08-30T07:32:33;20.57;;;16.57;;
47529;SDS011;33272;51.922;7.730;2023-08-30T07:35:01;22.07;;;16.93;;
47529;SDS011;33272;51.922;7.730;2023-08-30T07:37:28;18.17;;;16.17;;
47529;SDS011;33272;51.922;7.730;2023-08-30T07:39:55;19.97;;;15.37;;
47529;SDS011;33272;51.922;7.730;2023-08-30T07:42:23;20.97;;;15.40;;
47529;SDS011;33272;51.922;7.730;2023-08-30T07:44:50;18.30;;;14.53;;
47529;SDS011;33272;51.922;7.730;2023-08-30T07:47:17;18.40;;;14.80;;
47529;SDS011;33272;51.922;7.730;2023-08-30T07:49:44;18.87;;;15.23;;
47529;SDS011;33272;51.922;7.730;2023-08-30T07:52:11;16.93;;;13.77;;
47529;SDS011;33272;51.922;7.730;2023-08-30T07:54:39;15.77;;;12.80;;
47529;SDS011;33272;51.922;7.730;2023-08-30T07:57:07;18.60;;;13.50;;
47529;SDS011;33272;51.922;7.730;2023-08-30T07:59:36;15.20;;;12.20;;
47529;SDS011;33272;51.922;7.730;2023-08-30T08:02:03;15.87;;;12.57;;
47529;SDS011;33272;51.922;7.730;2023-08-30T08:04:32;18.33;;;13.70;;
47529;SDS011;33272;51.922;7.730;2023-08-30T08:07:00;16.77;;;13.47;;
47529;SDS011;33272;51.922;7.730;2023-08-30T08:09:27;14.93;;;12.43;;
47529;SDS011;33272;51.922;7.730;2023-08-30T08:11:55;18.13;;;12.97;;
47529;SDS011;33272;51.922;7.730;2023-08-30T08:14:22;16.77;;;12.70;;
47529;SDS011;33272;51.922;7.730;2023-08-30T08:16:51;16.60;;;13.40;;
47529;SDS011;33272;51.922;7.730;2023-08-30T08:19:18;21.10;;;13.33;;
47529;SDS011;33272;51.922;7.730;2023-08-30T08:21:46;15.70;;;13.20;;
47529;SDS011;33272;51.922;7.730;2023-08-30T08:24:14;18.77;;;14.67;;
47529;SDS011;33272;51.922;7.730;2023-08-30T08:26:41;18.43;;;14.93;;
47529;SDS011;33272;51.922;7.730;2023-08-30T08:29:08;16.93;;;14.93;;
47529;SDS011;33272;51.922;7.730;2023-08-30T08:31:35;18.60;;;15.60;;
47529;SDS011;33272;51.922;7.730;2023-08-30T08:34:07;20.80;;;15.30;;
47529;SDS011;33272;51.922;7.730;2023-08-30T08:36:36;18.83;;;15.10;;
47529;SDS011;33272;51.922;7.730;2023-08-30T08:39:04;17.07;;;15.23;;
47529;SDS011;33272;51.922;7.730;2023-08-30T08:41:34;19.07;;;16.03;;
47529;SDS011;33272;51.922;7.730;2023-08-30T08:44:06;17.77;;;15.03;;
47529;SDS011;33272;51.922;7.730;2023-08-30T08:46:34;17.70;;;15.03;;
47529;SDS011;33272;51.922;7.730;2023-08-30T08:49:05;18.43;;;15.00;;
47529;SDS011;33272;51.922;7.730;2023-08-30T08:51:39;17.30;;;14.93;;
47529;SDS011;33272;51.922;7.730;2023-08-30T08:54:07;14.60;;;13.10;;
47529;SDS011;33272;51.922;7.730;2023-08-30T08:56:35;17.50;;;14.53;;
47529;SDS011;33272;51.922;7.730;2023-08-30T08:59:04;16.70;;;13.93;;
47529;SDS011;33272;51.922;7.730;2023-08-30T09:01:33;16.37;;;13.90;;
47529;SDS011;33272;51.922;7.730;2023-08-30T09:04:01;15.93;;;13.43;;
47529;SDS011;33272;51.922;7.730;2023-08-30T09:06:33;15.27;;;12.80;;
47529;SDS011;33272;51.922;7.730;2023-08-30T09:09:01;19.23;;;14.10;;
47529;SDS011;33272;51.922;7.730;2023-08-30T09:11:30;17.43;;;13.77;;
47529;SDS011;33272;51.922;7.730;2023-08-30T09:13:57;15.40;;;13.47;;
47529;SDS011;33272;51.922;7.730;2023-08-30T09:16:24;16.50;;;13.83;;
47529;SDS011;33272;51.922;7.730;2023-08-30T09:18:58;14.93;;;13.33;;
47529;SDS011;33272;51.922;7.730;2023-08-30T09:21:25;15.13;;;13.50;;
47529;SDS011;33272;51.922;7.730;2023-08-30T09:23:58;18.87;;;12.97;;
47529;SDS011;33272;51.922;7.730;2023-08-30T09:26:26;15.33;;;12.10;;
47529;SDS011;33272;51.922;7.730;2023-08-30T09:28:54;16.90;;;12.67;;
47529;SDS011;33272;51.922;7.730;2023-08-30T09:31:21;14.03;;;11.80;;
47529;SDS011;33272;51.922;7.730;2023-08-30T09:33:48;13.90;;;11.33;;
47529;SDS011;33272;51.922;7.730;2023-08-30T09:36:18;13.17;;;10.97;;
47529;SDS011;33272;51.922;7.730;2023-08-30T09:38:48;12.20;;;10.10;;
47529;SDS011;33272;51.922;7.730;2023-08-30T09:41:17;12.87;;;10.57;;
47529;SDS011;33272;51.922;7.730;2023-08-30T09:43:44;13.47;;;10.47;;
47529;SDS011;33272;51.922;7.730;2023-08-30T09:46:12;11.10;;;9.77;;
47529;SDS011;33272;51.922;7.730;2023-08-30T09:48:39;12.07;;;9.93;;
47529;SDS011;33272;51.922;7.730;2023-08-30T09:51:07;12.47;;;9.80;;
47529;SDS011;33272;51.922;7.730;2023-08-30T09:53:37;11.70;;;9.70;;
47529;SDS011;33272;51.922;7.730;2023-08-30T09:56:11;14.63;;;10.30;;
47529;SDS011;33272;51.922;7.730;2023-08-30T09:58:41;12.60;;;9.63;;
47529;SDS011;33272;51.922;7.730;2023-08-30T10:01:09;11.67;;;9.37;;
47529;SDS011;33272;51.922;7.730;2023-08-30T10:03:37;12.37;;;10.20;;
47529;SDS011;33272;51.922;7.730;2023-08-30T10:06:05;11.40;;;9.30;;
47529;SDS011;33272;51.922;7.730;2023-08-30T10:08:33;10.97;;;9.60;;
47529;SDS011;33272;51.922;7.730;2023-08-30T10:11:02;9.03;;;8.03;;
47529;SDS011;33272;51.922;7.730;2023-08-30T10:13:30;11.47;;;9.07;;
47529;SDS011;33272;51.922;7.730;2023-08-30T10:16:01;12.17;;;9.53;;
47529;SDS011;33272;51.922;7.730;2023-08-30T10:18:29;10.47;;;8.63;;
47529;SDS011;33272;51.922;7.730;2023-08-30T10:21:01;11.73;;;9.17;;
47529;SDS011;33272;51.922;7.730;2023-08-30T10:23:33;9.70;;;7.77;;
47529;SDS011;33272;51.922;7.730;2023-08-30T10:26:03;8.90;;;8.00;;
47529;SDS011;33272;51.922;7.730;2023-08-30T10:28:32;8.13;;;7.33;;
47529;SDS011;33272;51.922;7.730;2023-08-30T10:31:02;7.90;;;6.90;;
47529;SDS011;33272;51.922;7.730;2023-08-30T10:33:30;9.57;;;6.60;;
47529;SDS011;33272;51.922;7.730;2023-08-30T10:36:02;8.10;;;6.57;;
47529;SDS011;33272;51.922;7.730;2023-08-30T10:38:32;7.70;;;5.90;;
47529;SDS011;33272;51.922;7.730;2023-08-30T10:41:06;8.00;;;6.00;;
47529;SDS011;33272;51.922;7.730;2023-08-30T10:43:35;7.07;;;5.17;;
47529;SDS011;33272;51.922;7.730;2023-08-30T10:46:05;5.57;;;4.90;;
47529;SDS011;33272;51.922;7.730;2023-08-30T10:48:36;8.37;;;5.83;;
47529;SDS011;33272;51.922;7.730;2023-08-30T10:51:05;5.70;;;4.90;;
47529;SDS011;33272;51.922;7.730;2023-08-30T10:53:54;5.77;;;4.90;;
47529;SDS011;33272;51.922;7.730;2023-08-30T10:56:26;6.60;;;4.70;;
47529;SDS011;33272;51.922;7.730;2023-08-30T10:58:55;6.03;;;4.73;;
47529;SDS011;33272;51.922;7.730;2023-08-30T11:01:24;5.17;;;4.57;;
47529;SDS011;33272;51.922;7.730;2023-08-30T11:03:51;6.20;;;3.90;;
47529;SDS011;33272;51.922;7.730;2023-08-30T11:06:18;5.33;;;4.53;;
47529;SDS011;33272;51.922;7.730;2023-08-30T11:08:47;4.90;;;4.27;;
47529;SDS011;33272;51.922;7.730;2023-08-30T11:11:15;6.50;;;4.20;;
47529;SDS011;33272;51.922;7.730;2023-08-30T11:13:42;5.13;;;4.20;;
47529;SDS011;33272;51.922;7.730;2023-08-30T11:16:09;6.10;;;4.90;;
47529;SDS011;33272;51.922;7.730;2023-08-30T11:18:38;7.43;;;6.07;;
47529;SDS011;33272;51.922;7.730;2023-08-30T11:21:07;11.23;;;7.03;;
47529;SDS011;33272;51.922;7.730;2023-08-30T11:23:36;9.73;;;7.43;;
47529;SDS011;33272;51.922;7.730;2023-08-30T11:26:03;8.40;;;7.43;;
47529;SDS011;33272;51.922;7.730;2023-08-30T11:28:30;8.03;;;7.27;;
47529;SDS011;33272;51.922;7.730;2023-08-30T11:30:57;8.70;;;7.50;;
47529;SDS011;33272;51.922;7.730;2023-08-30T11:33:24;9.37;;;7.70;;
47529;SDS011;33272;51.922;7.730;2023-08-30T11:35:53;8.73;;;7.40;;
47529;SDS011;33272;51.922;7.730;2023-08-30T11:38:20;10.07;;;8.23;;
47529;SDS011;33272;51.922;7.730;2023-08-30T11:40:48;7.70;;;6.90;;
47529;SDS011;33272;51.922;7.730;2023-08-30T11:43:17;8.53;;;7.43;;
47529;SDS011;33272;51.922;7.730;2023-08-30T11:45:45;7.13;;;6.10;;
47529;SDS011;33272;51.922;7.730;2023-08-30T11:48:13;9.33;;;6.27;;
47529;SDS011;33272;51.922;7.730;2023-08-30T11:50:41;7.13;;;5.20;;
47529;SDS011;33272;51.922;7.730;2023-08-30T11:53:11;5.93;;;5.43;;
47529;SDS011;33272;51.922;7.730;2023-08-30T11:55:38;5.87;;;5.27;;
47529;SDS011;33272;51.922;7.730;2023-08-30T11:58:06;6.20;;;5.60;;
47529;SDS011;33272;51.922;7.730;2023-08-30T12:00:35;6.37;;;4.83;;
47529;SDS011;33272;51.922;7.730;2023-08-30T12:03:03;5.23;;;4.73;;
47529;SDS011;33272;51.922;7.730;2023-08-30T12:05:31;4.40;;;4.00;;
47529;SDS011;33272;51.922;7.730;2023-08-30T12:08:00;5.07;;;4.33;;
47529;SDS011;33272;51.922;7.730;2023-08-30T12:10:29;5.83;;;4.40;;
47529;SDS011;33272;51.922;7.730;2023-08-30T12:12:57;4.23;;;3.83;;
47529;SDS011;33272;51.922;7.730;2023-08-30T12:15:24;4.80;;;4.33;;
47529;SDS011;33272;51.922;7.730;2023-08-30T12:17:52;6.43;;;4.40;;
47529;SDS011;33272;51.922;7.730;2023-08-30T12:20:20;6.27;;;5.03;;
47529;SDS011;33272;51.922;7.730;2023-08-30T12:22:48;7.10;;;4.77;;
47529;SDS011;33272;51.922;7.730;2023-08-30T12:25:16;5.97;;;4.43;;
47529;SDS011;33272;51.922;7.730;2023-08-30T12:27:46;5.47;;;4.90;;
47529;SDS011;33272;51.922;7.730;2023-08-30T12:30:14;5.93;;;5.07;;
47529;SDS011;33272;51.922;7.730;2023-08-30T12:32:42;6.87;;;5.00;;
47529;SDS011;33272;51.922;7.730;2023-08-30T12:35:10;5.60;;;5.10;;
47529;SDS011;33272;51.922;7.730;2023-08-30T12:37:37;6.30;;;5.60;;
47529;SDS011;33272;51.922;7.730;2023-08-30T12:40:04;6.87;;;5.50;;
47529;SDS011;33272;51.922;7.730;2023-08-30T12:42:32;6.13;;;5.10;;
47529;SDS011;33272;51.922;7.730;2023-08-30T12:45:01;5.90;;;5.30;;
47529;SDS011;33272;51.922;7.730;2023-08-30T12:47:28;6.03;;;4.90;;
47529;SDS011;33272;51.922;7.730;2023-08-30T12:49:55;6.17;;;5.57;;
47529;SDS011;33272;51.922;7.730;2023-08-30T12:52:22;6.13;;;5.53;;
47529;SDS011;33272;51.922;7.730;2023-08-30T12:54:49;7.50;;;6.10;;
47529;SDS011;33272;51.922;7.730;2023-08-30T12:57:17;6.23;;;5.30;;
47529;SDS011;33272;51.922;7.730;2023-08-30T12:59:44;6.30;;;5.70;;
47529;SDS011;33272;51.922;7.730;2023-08-30T13:02:12;6.30;;;5.70;;
47529;SDS011;33272;51.922;7.730;2023-08-30T13:04:39;6.27;;;5.60;;
47529;SDS011;33272;51.922;7.730;2023-08-30T13:07:06;7.03;;;6.30;;
47529;SDS011;33272;51.922;7.730;2023-08-30T13:09:33;6.47;;;5.80;;
47529;SDS011;33272;51.922;7.730;2023-08-30T13:12:00;6.30;;;5.70;;
47529;SDS011;33272;51.922;7.730;2023-08-30T13:14:27;6.83;;;5.77;;
47529;SDS011;33272;51.922;7.730;2023-08-30T13:16:54;6.77;;;6.07;;
47529;SDS011;33272;51.922;7.730;2023-08-30T13:19:22;6.57;;;5.83;;
47529;SDS011;33272;51.922;7.730;2023-08-30T13:21:49;6.23;;;5.57;;
47529;SDS011;33272;51.922;7.730;2023-08-30T13:24:16;6.50;;;5.90;;
47529;SDS011;33272;51.922;7.730;2023-08-30T13:26:43;6.43;;;5.73;;
47529;SDS011;33272;51.922;7.730;2023-08-30T13:29:11;5.97;;;5.20;;
47529;SDS011;33272;51.922;7.730;2023-08-30T13:31:38;5.57;;;5.07;;
47529;SDS011;33272;51.922;7.730;2023-08-30T13:34:05;6.10;;;5.50;;
47529;SDS011;33272;51.922;7.730;2023-08-30T13:36:33;5.60;;;5.00;;
47529;SDS011;33272;51.922;7.730;2023-08-30T13:39:01;6.13;;;5.40;;
47529;SDS011;33272;51.922;7.730;2023-08-30T13:41:29;6.23;;;5.20;;
47529;SDS011;33272;51.922;7.730;2023-08-30T13:43:56;5.77;;;5.20;;
47529;SDS011;33272;51.922;7.730;2023-08-30T13:46:23;5.17;;;4.67;;
47529;SDS011;33272;51.922;7.730;2023-08-30T13:48:50;5.67;;;5.00;;
47529;SDS011;33272;51.922;7.730;2023-08-30T13:51:20;5.60;;;5.10;;
47529;SDS011;33272;51.922;7.730;2023-08-30T13:53:49;6.83;;;5.47;;
47529;SDS011;33272;51.922;7.730;2023-08-30T13:56:17;6.30;;;5.20;;
47529;SDS011;33272;51.922;7.730;2023-08-30T13:58:45;6.17;;;5.30;;
47529;SDS011;33272;51.922;7.730;2023-08-30T14:01:12;5.73;;;5.13;;
47529;SDS011;33272;51.922;7.730;2023-08-30T14:03:39;6.30;;;5.37;;
47529;SDS011;33272;51.922;7.730;2023-08-30T14:06:07;6.20;;;5.40;;
47529;SDS011;33272;51.922;7.730;2023-08-30T14:08:34;5.20;;;4.70;;
47529;SDS011;33272;51.922;7.730;2023-08-30T14:11:03;5.50;;;5.00;;
47529;SDS011;33272;51.922;7.730;2023-08-30T14:13:30;6.13;;;4.87;;
47529;SDS011;33272;51.922;7.730;2023-08-30T14:15:57;5.60;;;5.10;;
47529;SDS011;33272;51.922;7.730;2023-08-30T14:18:24;6.47;;;5.63;;
47529;SDS011;33272;51.922;7.730;2023-08-30T14:20:54;8.20;;;6.07;;
47529;SDS011;33272;51.922;7.730;2023-08-30T14:23:23;6.17;;;5.57;;
47529;SDS011;33272;51.922;7.730;2023-08-30T14:25:57;5.93;;;5.40;;
47529;SDS011;33272;51.922;7.730;2023-08-30T14:28:26;6.30;;;5.70;;
47529;SDS011;33272;51.922;7.730;2023-08-30T14:30:53;6.67;;;6.03;;
47529;SDS011;33272;51.922;7.730;2023-08-30T14:33:21;6.30;;;5.73;;
47529;SDS011;33272;51.922;7.730;2023-08-30T14:35:48;5.87;;;5.27;;
47529;SDS011;33272;51.922;7.730;2023-08-30T14:38:15;7.03;;;6.33;;
47529;SDS011;33272;51.922;7.730;2023-08-30T14:40:42;6.97;;;6.30;;